sensor_id;sensor_type;location;lat;lon;timestamp;P1;durP1;ratioP1;P2;durP2;ratioP2
5507;SDS011;2776;51.046;6.772;2023-09-08T00:01:57;9.47;;;7.10;;
5507;SDS011;2776;51.046;6.772;2023-09-08T00:04:24;8.30;;;7.20;;
5507;SDS011;2776;51.046;6.772;2023-09-08T00:06:51;9.73;;;6.87;;
5507;SDS011;2776;51.046;6.772;2023-09-08T00:09:19;7.83;;;7.03;;
5507;SDS011;2776;51.046;6.772;2023-09-08T00:11:46;7.83;;;7.03;;
5507;SDS011;2776;51.046;6.772;2023-09-08T00:14:12;9.90;;;7.90;;
5507;SDS011;2776;51.046;6.772;2023-09-08T00:16:39;8.43;;;7.03;;
5507;SDS011;2776;51.046;6.772;2023-09-08T00:19:07;7.80;;;6.90;;
5507;SDS011;2776;51.046;6.772;2023-09-08T00:21:34;8.93;;;7.33;;
5507;SDS011;2776;51.046;6.772;2023-09-08T00:24:02;7.70;;;6.90;;
5507;SDS011;2776;51.046;6.772;2023-09-08T00:26:31;8.20;;;7.40;;
5507;SDS011;2776;51.046;6.772;2023-09-08T00:28:58;7.97;;;7.15;;
5507;SDS011;2776;51.046;6.772;2023-09-08T00:31:25;7.63;;;6.67;;
5507;SDS011;2776;51.046;6.772;2023-09-08T00:33:51;8.37;;;7.47;;
5507;SDS011;2776;51.046;6.772;2023-09-08T00:36:18;7.53;;;6.77;;
5507;SDS011;2776;51.046;6.772;2023-09-08T00:38:45;7.47;;;6.43;;
5507;SDS011;2776;51.046;6.772;2023-09-08T00:41:11;10.27;;;7.37;;
5507;SDS011;2776;51.046;6.772;2023-09-08T00:43:39;7.13;;;6.43;;
5507;SDS011;2776;51.046;6.772;2023-09-08T00:46:06;7.87;;;6.67;;
5507;SDS011;2776;51.046;6.772;2023-09-08T00:48:33;8.60;;;6.73;;
5507;SDS011;2776;51.046;6.772;2023-09-08T00:51:00;8.10;;;6.50;;
5507;SDS011;2776;51.046;6.772;2023-09-08T00:53:30;8.23;;;6.93;;
5507;SDS011;2776;51.046;6.772;2023-09-08T00:55:56;7.63;;;6.97;;
5507;SDS011;2776;51.046;6.772;2023-09-08T00:58:25;8.53;;;7.10;;
5507;SDS011;2776;51.046;6.772;2023-09-08T01:00:53;8.73;;;6.77;;
5507;SDS011;2776;51.046;6.772;2023-09-08T01:03:22;7.67;;;6.87;;
5507;SDS011;2776;51.046;6.772;2023-09-08T01:05:49;8.07;;;7.00;;
5507;SDS011;2776;51.046;6.772;2023-09-08T01:08:16;8.20;;;7.30;;
5507;SDS011;2776;51.046;6.772;2023-09-08T01:10:43;8.17;;;7.37;;
5507;SDS011;2776;51.046;6.772;2023-09-08T01:13:11;8.23;;;7.30;;
5507;SDS011;2776;51.046;6.772;2023-09-08T01:15:38;8.37;;;6.90;;
5507;SDS011;2776;51.046;6.772;2023-09-08T01:18:06;7.70;;;7.00;;
5507;SDS011;2776;51.046;6.772;2023-09-08T01:20:35;8.17;;;7.27;;
5507;SDS011;2776;51.046;6.772;2023-09-08T01:23:17;7.87;;;7.07;;
5507;SDS011;2776;51.046;6.772;2023-09-08T01:25:49;7.83;;;6.77;;
5507;SDS011;2776;51.046;6.772;2023-09-08T01:28:21;8.13;;;6.97;;
5507;SDS011;2776;51.046;6.772;2023-09-08T01:30:48;8.27;;;7.47;;
5507;SDS011;2776;51.046;6.772;2023-09-08T01:33:16;7.80;;;6.93;;
5507;SDS011;2776;51.046;6.772;2023-09-08T01:35:43;8.27;;;7.47;;
5507;SDS011;2776;51.046;6.772;2023-09-08T01:38:10;7.33;;;6.63;;
5507;SDS011;2776;51.046;6.772;2023-09-08T01:40:37;7.90;;;6.83;;
5507;SDS011;2776;51.046;6.772;2023-09-08T01:43:05;7.40;;;6.63;;
5507;SDS011;2776;51.046;6.772;2023-09-08T01:45:32;7.83;;;6.53;;
5507;SDS011;2776;51.046;6.772;2023-09-08T01:47:59;7.90;;;7.10;;
5507;SDS011;2776;51.046;6.772;2023-09-08T01:50:26;8.27;;;7.00;;
5507;SDS011;2776;51.046;6.772;2023-09-08T01:52:52;7.30;;;6.70;;
5507;SDS011;2776;51.046;6.772;2023-09-08T01:55:19;7.60;;;6.80;;
5507;SDS011;2776;51.046;6.772;2023-09-08T01:57:46;7.77;;;6.63;;
5507;SDS011;2776;51.046;6.772;2023-09-08T02:00:14;8.73;;;7.10;;
5507;SDS011;2776;51.046;6.772;2023-09-08T02:02:42;8.73;;;7.40;;
5507;SDS011;2776;51.046;6.772;2023-09-08T02:05:08;10.40;;;7.07;;
5507;SDS011;2776;51.046;6.772;2023-09-08T02:07:35;7.37;;;6.63;;
5507;SDS011;2776;51.046;6.772;2023-09-08T02:10:02;8.10;;;7.10;;
5507;SDS011;2776;51.046;6.772;2023-09-08T02:12:29;8.50;;;7.23;;
5507;SDS011;2776;51.046;6.772;2023-09-08T02:14:55;7.43;;;6.73;;
5507;SDS011;2776;51.046;6.772;2023-09-08T02:17:24;7.30;;;6.50;;
5507;SDS011;2776;51.046;6.772;2023-09-08T02:19:51;7.47;;;6.77;;
5507;SDS011;2776;51.046;6.772;2023-09-08T02:22:18;9.40;;;6.90;;
5507;SDS011;2776;51.046;6.772;2023-09-08T02:24:44;8.27;;;7.20;;
5507;SDS011;2776;51.046;6.772;2023-09-08T02:27:11;8.07;;;6.30;;
5507;SDS011;2776;51.046;6.772;2023-09-08T02:29:38;8.60;;;6.93;;
5507;SDS011;2776;51.046;6.772;2023-09-08T02:32:05;9.00;;;7.20;;
5507;SDS011;2776;51.046;6.772;2023-09-08T02:34:34;7.83;;;7.07;;
5507;SDS011;2776;51.046;6.772;2023-09-08T02:37:02;7.07;;;6.37;;
5507;SDS011;2776;51.046;6.772;2023-09-08T02:39:29;7.90;;;6.83;;
5507;SDS011;2776;51.046;6.772;2023-09-08T02:41:56;8.60;;;7.13;;
5507;SDS011;2776;51.046;6.772;2023-09-08T02:44:23;7.30;;;6.60;;
5507;SDS011;2776;51.046;6.772;2023-09-08T02:46:50;7.93;;;7.13;;
5507;SDS011;2776;51.046;6.772;2023-09-08T02:49:17;8.57;;;7.57;;
5507;SDS011;2776;51.046;6.772;2023-09-08T02:51:45;8.33;;;7.20;;
5507;SDS011;2776;51.046;6.772;2023-09-08T02:54:12;7.30;;;6.60;;
5507;SDS011;2776;51.046;6.772;2023-09-08T02:56:38;8.67;;;6.83;;
5507;SDS011;2776;51.046;6.772;2023-09-08T02:59:05;7.40;;;6.60;;
5507;SDS011;2776;51.046;6.772;2023-09-08T03:01:32;7.67;;;7.03;;
5507;SDS011;2776;51.046;6.772;2023-09-08T03:03:59;8.10;;;7.30;;
5507;SDS011;2776;51.046;6.772;2023-09-08T03:06:25;7.63;;;6.90;;
5507;SDS011;2776;51.046;6.772;2023-09-08T03:08:53;9.23;;;7.67;;
5507;SDS011;2776;51.046;6.772;2023-09-08T03:11:20;6.93;;;6.23;;
5507;SDS011;2776;51.046;6.772;2023-09-08T03:13:47;7.53;;;6.80;;
5507;SDS011;2776;51.046;6.772;2023-09-08T03:16:14;7.07;;;6.37;;
5507;SDS011;2776;51.046;6.772;2023-09-08T03:18:41;7.57;;;6.77;;
5507;SDS011;2776;51.046;6.772;2023-09-08T03:21:07;7.93;;;6.77;;
5507;SDS011;2776;51.046;6.772;2023-09-08T03:23:37;9.37;;;6.80;;
5507;SDS011;2776;51.046;6.772;2023-09-08T03:26:05;7.37;;;6.67;;
5507;SDS011;2776;51.046;6.772;2023-09-08T03:28:33;9.77;;;6.57;;
5507;SDS011;2776;51.046;6.772;2023-09-08T03:31:01;9.03;;;6.43;;
5507;SDS011;2776;51.046;6.772;2023-09-08T03:33:28;8.83;;;6.63;;
5507;SDS011;2776;51.046;6.772;2023-09-08T03:35:54;6.43;;;5.83;;
5507;SDS011;2776;51.046;6.772;2023-09-08T03:38:21;7.37;;;5.73;;
5507;SDS011;2776;51.046;6.772;2023-09-08T03:40:48;7.73;;;6.93;;
5507;SDS011;2776;51.046;6.772;2023-09-08T03:43:16;6.30;;;5.70;;
5507;SDS011;2776;51.046;6.772;2023-09-08T03:45:43;6.50;;;5.50;;
5507;SDS011;2776;51.046;6.772;2023-09-08T03:48:09;5.97;;;5.47;;
5507;SDS011;2776;51.046;6.772;2023-09-08T03:50:36;6.47;;;5.87;;
5507;SDS011;2776;51.046;6.772;2023-09-08T03:53:03;8.03;;;5.87;;
5507;SDS011;2776;51.046;6.772;2023-09-08T03:55:30;6.80;;;5.93;;
5507;SDS011;2776;51.046;6.772;2023-09-08T03:57:57;8.23;;;5.57;;
5507;SDS011;2776;51.046;6.772;2023-09-08T04:00:25;6.40;;;5.80;;
5507;SDS011;2776;51.046;6.772;2023-09-08T04:02:52;7.57;;;6.30;;
5507;SDS011;2776;51.046;6.772;2023-09-08T04:05:18;6.33;;;5.73;;
5507;SDS011;2776;51.046;6.772;2023-09-08T04:07:45;7.23;;;6.10;;
5507;SDS011;2776;51.046;6.772;2023-09-08T04:10:12;6.40;;;5.80;;
5507;SDS011;2776;51.046;6.772;2023-09-08T04:12:39;7.50;;;5.70;;
5507;SDS011;2776;51.046;6.772;2023-09-08T04:15:07;7.13;;;6.07;;
5507;SDS011;2776;51.046;6.772;2023-09-08T04:17:36;7.30;;;5.90;;
5507;SDS011;2776;51.046;6.772;2023-09-08T04:20:03;7.37;;;6.00;;
5507;SDS011;2776;51.046;6.772;2023-09-08T04:22:31;6.50;;;5.90;;
5507;SDS011;2776;51.046;6.772;2023-09-08T04:24:58;6.67;;;5.90;;
5507;SDS011;2776;51.046;6.772;2023-09-08T04:27:25;6.60;;;6.00;;
5507;SDS011;2776;51.046;6.772;2023-09-08T04:29:52;8.43;;;6.13;;
5507;SDS011;2776;51.046;6.772;2023-09-08T04:32:18;8.23;;;6.33;;
5507;SDS011;2776;51.046;6.772;2023-09-08T04:34:46;7.57;;;5.67;;
5507;SDS011;2776;51.046;6.772;2023-09-08T04:37:14;8.20;;;5.87;;
5507;SDS011;2776;51.046;6.772;2023-09-08T04:39:40;6.90;;;6.20;;
5507;SDS011;2776;51.046;6.772;2023-09-08T04:42:07;6.90;;;5.97;;
5507;SDS011;2776;51.046;6.772;2023-09-08T04:44:34;6.43;;;5.83;;
5507;SDS011;2776;51.046;6.772;2023-09-08T04:47:01;7.53;;;6.13;;
5507;SDS011;2776;51.046;6.772;2023-09-08T04:49:27;6.73;;;6.13;;
5507;SDS011;2776;51.046;6.772;2023-09-08T04:51:56;7.47;;;5.93;;
5507;SDS011;2776;51.046;6.772;2023-09-08T04:54:22;6.37;;;5.77;;
5507;SDS011;2776;51.046;6.772;2023-09-08T04:56:52;8.53;;;6.47;;
5507;SDS011;2776;51.046;6.772;2023-09-08T04:59:18;6.50;;;5.83;;
5507;SDS011;2776;51.046;6.772;2023-09-08T05:01:45;6.80;;;6.07;;
5507;SDS011;2776;51.046;6.772;2023-09-08T05:04:12;6.53;;;5.93;;
5507;SDS011;2776;51.046;6.772;2023-09-08T05:06:39;6.50;;;5.70;;
5507;SDS011;2776;51.046;6.772;2023-09-08T05:09:07;6.37;;;5.63;;
5507;SDS011;2776;51.046;6.772;2023-09-08T05:11:33;6.60;;;5.67;;
5507;SDS011;2776;51.046;6.772;2023-09-08T05:14:00;10.17;;;6.13;;
5507;SDS011;2776;51.046;6.772;2023-09-08T05:16:28;7.70;;;5.50;;
5507;SDS011;2776;51.046;6.772;2023-09-08T05:19:04;7.23;;;5.97;;
5507;SDS011;2776;51.046;6.772;2023-09-08T05:21:31;7.10;;;6.10;;
5507;SDS011;2776;51.046;6.772;2023-09-08T05:24:00;11.20;;;6.47;;
5507;SDS011;2776;51.046;6.772;2023-09-08T05:26:28;7.57;;;5.73;;
5507;SDS011;2776;51.046;6.772;2023-09-08T05:28:54;7.40;;;6.57;;
5507;SDS011;2776;51.046;6.772;2023-09-08T05:31:21;7.13;;;5.87;;
5507;SDS011;2776;51.046;6.772;2023-09-08T05:33:48;6.33;;;5.70;;
5507;SDS011;2776;51.046;6.772;2023-09-08T05:36:15;8.17;;;6.40;;
5507;SDS011;2776;51.046;6.772;2023-09-08T05:38:41;9.97;;;6.07;;
5507;SDS011;2776;51.046;6.772;2023-09-08T05:41:08;6.47;;;5.87;;
5507;SDS011;2776;51.046;6.772;2023-09-08T05:43:36;5.97;;;5.43;;
5507;SDS011;2776;51.046;6.772;2023-09-08T05:46:03;6.30;;;5.70;;
5507;SDS011;2776;51.046;6.772;2023-09-08T05:48:30;7.17;;;5.73;;
5507;SDS011;2776;51.046;6.772;2023-09-08T05:50:57;5.90;;;5.40;;
5507;SDS011;2776;51.046;6.772;2023-09-08T05:53:23;7.53;;;5.83;;
5507;SDS011;2776;51.046;6.772;2023-09-08T05:55:50;5.30;;;4.77;;
5507;SDS011;2776;51.046;6.772;2023-09-08T05:58:17;7.23;;;5.77;;
5507;SDS011;2776;51.046;6.772;2023-09-08T06:00:45;7.23;;;5.80;;
5507;SDS011;2776;51.046;6.772;2023-09-08T06:03:12;7.87;;;5.37;;
5507;SDS011;2776;51.046;6.772;2023-09-08T06:05:39;5.85;;;5.25;;
5507;SDS011;2776;51.046;6.772;2023-09-08T06:08:06;5.50;;;5.00;;
5507;SDS011;2776;51.046;6.772;2023-09-08T06:10:32;8.65;;;5.53;;
5507;SDS011;2776;51.046;6.772;2023-09-08T06:12:59;5.53;;;5.03;;
5507;SDS011;2776;51.046;6.772;2023-09-08T06:15:26;6.18;;;5.45;;
5507;SDS011;2776;51.046;6.772;2023-09-08T06:17:54;5.35;;;4.85;;
5507;SDS011;2776;51.046;6.772;2023-09-08T06:20:20;5.78;;;5.18;;
5507;SDS011;2776;51.046;6.772;2023-09-08T06:22:47;5.88;;;4.55;;
5507;SDS011;2776;51.046;6.772;2023-09-08T06:25:14;6.05;;;5.20;;
5507;SDS011;2776;51.046;6.772;2023-09-08T06:27:41;6.50;;;4.90;;
5507;SDS011;2776;51.046;6.772;2023-09-08T06:30:08;5.57;;;5.07;;
5507;SDS011;2776;51.046;6.772;2023-09-08T06:32:38;6.07;;;4.95;;
5507;SDS011;2776;51.046;6.772;2023-09-08T06:35:06;6.88;;;4.53;;
5507;SDS011;2776;51.046;6.772;2023-09-08T06:37:34;9.07;;;4.72;;
5507;SDS011;2776;51.046;6.772;2023-09-08T06:40:02;6.70;;;5.15;;
5507;SDS011;2776;51.046;6.772;2023-09-08T06:42:29;4.72;;;4.28;;
5507;SDS011;2776;51.046;6.772;2023-09-08T06:44:56;5.05;;;4.22;;
5507;SDS011;2776;51.046;6.772;2023-09-08T06:47:23;10.38;;;5.07;;
5507;SDS011;2776;51.046;6.772;2023-09-08T06:49:49;5.28;;;4.50;;
5507;SDS011;2776;51.046;6.772;2023-09-08T06:52:18;7.78;;;4.68;;
5507;SDS011;2776;51.046;6.772;2023-09-08T06:54:45;6.38;;;4.55;;
5507;SDS011;2776;51.046;6.772;2023-09-08T06:57:12;5.05;;;4.07;;
5507;SDS011;2776;51.046;6.772;2023-09-08T06:59:38;5.07;;;4.60;;
5507;SDS011;2776;51.046;6.772;2023-09-08T07:02:06;7.57;;;4.70;;
5507;SDS011;2776;51.046;6.772;2023-09-08T07:04:33;5.88;;;4.47;;
5507;SDS011;2776;51.046;6.772;2023-09-08T07:07:00;6.10;;;4.32;;
5507;SDS011;2776;51.046;6.772;2023-09-08T07:09:30;4.95;;;4.45;;
5507;SDS011;2776;51.046;6.772;2023-09-08T07:11:56;6.22;;;4.38;;
5507;SDS011;2776;51.046;6.772;2023-09-08T07:14:23;5.53;;;4.38;;
5507;SDS011;2776;51.046;6.772;2023-09-08T07:16:50;5.47;;;4.30;;
5507;SDS011;2776;51.046;6.772;2023-09-08T07:19:16;5.38;;;4.50;;
5507;SDS011;2776;51.046;6.772;2023-09-08T07:21:43;6.47;;;4.28;;
5507;SDS011;2776;51.046;6.772;2023-09-08T07:24:10;5.03;;;3.97;;
5507;SDS011;2776;51.046;6.772;2023-09-08T07:26:38;4.65;;;4.15;;
5507;SDS011;2776;51.046;6.772;2023-09-08T07:29:05;9.05;;;4.00;;
5507;SDS011;2776;51.046;6.772;2023-09-08T07:31:32;6.50;;;4.50;;
5507;SDS011;2776;51.046;6.772;2023-09-08T07:33:58;5.93;;;3.72;;
5507;SDS011;2776;51.046;6.772;2023-09-08T07:36:25;5.55;;;4.07;;
5507;SDS011;2776;51.046;6.772;2023-09-08T07:38:52;4.57;;;4.15;;
5507;SDS011;2776;51.046;6.772;2023-09-08T07:41:18;4.63;;;3.88;;
5507;SDS011;2776;51.046;6.772;2023-09-08T07:43:46;7.25;;;4.43;;
5507;SDS011;2776;51.046;6.772;2023-09-08T07:46:13;4.13;;;3.60;;
5507;SDS011;2776;51.046;6.772;2023-09-08T07:48:40;5.45;;;3.47;;
5507;SDS011;2776;51.046;6.772;2023-09-08T07:51:07;3.72;;;3.35;;
5507;SDS011;2776;51.046;6.772;2023-09-08T07:53:33;8.65;;;4.25;;
5507;SDS011;2776;51.046;6.772;2023-09-08T07:56:00;5.45;;;3.63;;
5507;SDS011;2776;51.046;6.772;2023-09-08T07:58:27;5.15;;;3.97;;
5507;SDS011;2776;51.046;6.772;2023-09-08T08:00:55;5.75;;;3.38;;
5507;SDS011;2776;51.046;6.772;2023-09-08T08:03:22;6.03;;;3.88;;
5507;SDS011;2776;51.046;6.772;2023-09-08T08:05:48;6.70;;;4.03;;
5507;SDS011;2776;51.046;6.772;2023-09-08T08:08:15;5.32;;;3.80;;
5507;SDS011;2776;51.046;6.772;2023-09-08T08:10:42;4.45;;;4.05;;
5507;SDS011;2776;51.046;6.772;2023-09-08T08:13:09;4.93;;;3.60;;
5507;SDS011;2776;51.046;6.772;2023-09-08T08:15:36;4.97;;;3.75;;
5507;SDS011;2776;51.046;6.772;2023-09-08T08:18:06;5.93;;;4.35;;
5507;SDS011;2776;51.046;6.772;2023-09-08T08:20:34;4.40;;;4.00;;
5507;SDS011;2776;51.046;6.772;2023-09-08T08:23:01;3.75;;;3.45;;
5507;SDS011;2776;51.046;6.772;2023-09-08T08:25:28;5.38;;;3.92;;
5507;SDS011;2776;51.046;6.772;2023-09-08T08:27:55;4.13;;;3.55;;
5507;SDS011;2776;51.046;6.772;2023-09-08T08:30:23;4.22;;;3.83;;
5507;SDS011;2776;51.046;6.772;2023-09-08T08:32:50;5.40;;;3.67;;
5507;SDS011;2776;51.046;6.772;2023-09-08T08:35:19;4.28;;;3.88;;
5507;SDS011;2776;51.046;6.772;2023-09-08T08:37:46;4.15;;;3.45;;
5507;SDS011;2776;51.046;6.772;2023-09-08T08:40:13;4.07;;;3.47;;
5507;SDS011;2776;51.046;6.772;2023-09-08T08:42:40;6.03;;;3.95;;
5507;SDS011;2776;51.046;6.772;2023-09-08T08:45:08;4.05;;;3.65;;
5507;SDS011;2776;51.046;6.772;2023-09-08T08:47:35;6.72;;;3.40;;
5507;SDS011;2776;51.046;6.772;2023-09-08T08:50:02;4.35;;;3.83;;
5507;SDS011;2776;51.046;6.772;2023-09-08T08:52:31;6.93;;;3.60;;
5507;SDS011;2776;51.046;6.772;2023-09-08T08:54:59;5.50;;;3.40;;
5507;SDS011;2776;51.046;6.772;2023-09-08T08:57:25;4.18;;;3.78;;
5507;SDS011;2776;51.046;6.772;2023-09-08T08:59:53;3.78;;;3.47;;
5507;SDS011;2776;51.046;6.772;2023-09-08T09:02:20;5.18;;;3.80;;
5507;SDS011;2776;51.046;6.772;2023-09-08T09:04:48;4.28;;;3.63;;
5507;SDS011;2776;51.046;6.772;2023-09-08T09:07:15;4.85;;;3.70;;
5507;SDS011;2776;51.046;6.772;2023-09-08T09:09:46;5.68;;;3.88;;
5507;SDS011;2776;51.046;6.772;2023-09-08T09:12:13;5.18;;;3.67;;
5507;SDS011;2776;51.046;6.772;2023-09-08T09:14:44;7.55;;;3.35;;
5507;SDS011;2776;51.046;6.772;2023-09-08T09:17:12;9.52;;;3.72;;
5507;SDS011;2776;51.046;6.772;2023-09-08T09:19:40;4.40;;;3.67;;
5507;SDS011;2776;51.046;6.772;2023-09-08T09:22:06;6.25;;;3.97;;
5507;SDS011;2776;51.046;6.772;2023-09-08T09:24:33;5.78;;;4.25;;
5507;SDS011;2776;51.046;6.772;2023-09-08T09:27:05;4.25;;;3.35;;
5507;SDS011;2776;51.046;6.772;2023-09-08T09:29:32;7.72;;;3.72;;
5507;SDS011;2776;51.046;6.772;2023-09-08T09:32:02;5.32;;;3.95;;
5507;SDS011;2776;51.046;6.772;2023-09-08T09:34:30;7.95;;;4.18;;
5507;SDS011;2776;51.046;6.772;2023-09-08T09:36:57;4.93;;;3.55;;
5507;SDS011;2776;51.046;6.772;2023-09-08T09:39:24;4.43;;;3.67;;
5507;SDS011;2776;51.046;6.772;2023-09-08T09:41:53;8.27;;;4.30;;
5507;SDS011;2776;51.046;6.772;2023-09-08T09:44:22;8.18;;;3.90;;
5507;SDS011;2776;51.046;6.772;2023-09-08T09:46:51;4.93;;;4.03;;
5507;SDS011;2776;51.046;6.772;2023-09-08T09:49:18;7.60;;;3.60;;
5507;SDS011;2776;51.046;6.772;2023-09-08T09:51:46;4.05;;;3.60;;
5507;SDS011;2776;51.046;6.772;2023-09-08T09:54:14;6.35;;;3.70;;
5507;SDS011;2776;51.046;6.772;2023-09-08T09:56:41;5.18;;;3.83;;
5507;SDS011;2776;51.046;6.772;2023-09-08T09:59:09;3.85;;;3.55;;
5507;SDS011;2776;51.046;6.772;2023-09-08T10:01:39;4.82;;;3.40;;
5507;SDS011;2776;51.046;6.772;2023-09-08T10:04:07;4.07;;;3.67;;
5507;SDS011;2776;51.046;6.772;2023-09-08T10:06:37;4.47;;;3.60;;
5507;SDS011;2776;51.046;6.772;2023-09-08T10:09:05;4.78;;;3.50;;
5507;SDS011;2776;51.046;6.772;2023-09-08T10:11:38;4.38;;;3.55;;
5507;SDS011;2776;51.046;6.772;2023-09-08T10:14:08;3.72;;;3.42;;
5507;SDS011;2776;51.046;6.772;2023-09-08T10:16:39;3.80;;;3.47;;
5507;SDS011;2776;51.046;6.772;2023-09-08T10:19:09;6.22;;;3.83;;
5507;SDS011;2776;51.046;6.772;2023-09-08T10:21:40;4.43;;;3.63;;
5507;SDS011;2776;51.046;6.772;2023-09-08T10:24:11;4.03;;;3.63;;
5507;SDS011;2776;51.046;6.772;2023-09-08T10:26:43;5.05;;;3.60;;
5507;SDS011;2776;51.046;6.772;2023-09-08T10:29:10;4.45;;;3.75;;
5507;SDS011;2776;51.046;6.772;2023-09-08T10:31:40;5.70;;;4.00;;
5507;SDS011;2776;51.046;6.772;2023-09-08T10:34:09;4.90;;;3.75;;
5507;SDS011;2776;51.046;6.772;2023-09-08T10:36:35;6.45;;;3.53;;
5507;SDS011;2776;51.046;6.772;2023-09-08T10:39:27;4.97;;;3.85;;
5507;SDS011;2776;51.046;6.772;2023-09-08T10:44:55;4.45;;;3.70;;
5507;SDS011;2776;51.046;6.772;2023-09-08T10:47:24;5.43;;;3.45;;
5507;SDS011;2776;51.046;6.772;2023-09-08T10:49:52;4.15;;;3.78;;
5507;SDS011;2776;51.046;6.772;2023-09-08T10:52:22;6.28;;;3.83;;
5507;SDS011;2776;51.046;6.772;2023-09-08T10:54:50;4.20;;;3.80;;
5507;SDS011;2776;51.046;6.772;2023-09-08T10:57:19;6.32;;;3.97;;
5507;SDS011;2776;51.046;6.772;2023-09-08T10:59:49;4.18;;;3.78;;
5507;SDS011;2776;51.046;6.772;2023-09-08T11:02:32;4.50;;;3.70;;
5507;SDS011;2776;51.046;6.772;2023-09-08T11:05:00;4.20;;;3.80;;
5507;SDS011;2776;51.046;6.772;2023-09-08T11:07:29;4.28;;;3.88;;
5507;SDS011;2776;51.046;6.772;2023-09-08T11:09:56;4.65;;;3.50;;
5507;SDS011;2776;51.046;6.772;2023-09-08T11:12:26;4.32;;;3.63;;
5507;SDS011;2776;51.046;6.772;2023-09-08T11:14:53;5.85;;;3.75;;
5507;SDS011;2776;51.046;6.772;2023-09-08T11:17:20;4.25;;;3.83;;
5507;SDS011;2776;51.046;6.772;2023-09-08T11:19:51;4.65;;;3.90;;
5507;SDS011;2776;51.046;6.772;2023-09-08T11:22:21;4.63;;;3.50;;
5507;SDS011;2776;51.046;6.772;2023-09-08T11:24:49;4.70;;;3.95;;
5507;SDS011;2776;51.046;6.772;2023-09-08T11:27:16;4.10;;;3.70;;
5507;SDS011;2776;51.046;6.772;2023-09-08T11:29:44;4.82;;;4.32;;
5507;SDS011;2776;51.046;6.772;2023-09-08T11:32:11;5.60;;;3.92;;
5507;SDS011;2776;51.046;6.772;2023-09-08T11:34:38;5.78;;;3.95;;
5507;SDS011;2776;51.046;6.772;2023-09-08T11:37:08;5.80;;;4.53;;
5507;SDS011;2776;51.046;6.772;2023-09-08T11:39:37;4.55;;;3.20;;
5507;SDS011;2776;51.046;6.772;2023-09-08T11:42:04;4.32;;;3.60;;
5507;SDS011;2776;51.046;6.772;2023-09-08T11:44:32;7.15;;;4.00;;
5507;SDS011;2776;51.046;6.772;2023-09-08T11:46:59;4.05;;;3.65;;
5507;SDS011;2776;51.046;6.772;2023-09-08T11:49:27;4.25;;;3.85;;
5507;SDS011;2776;51.046;6.772;2023-09-08T11:51:59;5.38;;;3.67;;
5507;SDS011;2776;51.046;6.772;2023-09-08T11:54:27;5.60;;;3.72;;
5507;SDS011;2776;51.046;6.772;2023-09-08T11:56:55;7.20;;;4.05;;
5507;SDS011;2776;51.046;6.772;2023-09-08T11:59:22;4.70;;;3.63;;
5507;SDS011;2776;51.046;6.772;2023-09-08T12:01:49;4.72;;;3.58;;
5507;SDS011;2776;51.046;6.772;2023-09-08T12:04:16;6.40;;;3.80;;
5507;SDS011;2776;51.046;6.772;2023-09-08T12:06:43;4.47;;;3.80;;
5507;SDS011;2776;51.046;6.772;2023-09-08T12:09:10;5.85;;;3.58;;
5507;SDS011;2776;51.046;6.772;2023-09-08T12:11:39;4.20;;;3.50;;
5507;SDS011;2776;51.046;6.772;2023-09-08T12:14:08;4.07;;;3.60;;
5507;SDS011;2776;51.046;6.772;2023-09-08T12:16:36;5.30;;;3.95;;
5507;SDS011;2776;51.046;6.772;2023-09-08T12:19:03;5.05;;;3.95;;
5507;SDS011;2776;51.046;6.772;2023-09-08T12:21:29;5.22;;;4.00;;
5507;SDS011;2776;51.046;6.772;2023-09-08T12:23:57;4.75;;;3.90;;
5507;SDS011;2776;51.046;6.772;2023-09-08T12:26:24;5.50;;;3.90;;
5507;SDS011;2776;51.046;6.772;2023-09-08T12:28:52;3.85;;;3.42;;
5507;SDS011;2776;51.046;6.772;2023-09-08T12:31:19;5.47;;;3.65;;
5507;SDS011;2776;51.046;6.772;2023-09-08T12:33:46;3.80;;;3.42;;
5507;SDS011;2776;51.046;6.772;2023-09-08T12:36:13;4.07;;;3.40;;
5507;SDS011;2776;51.046;6.772;2023-09-08T12:38:40;8.88;;;7.97;;
5507;SDS011;2776;51.046;6.772;2023-09-08T12:41:07;4.25;;;3.85;;
5507;SDS011;2776;51.046;6.772;2023-09-08T12:43:34;3.88;;;3.38;;
5507;SDS011;2776;51.046;6.772;2023-09-08T12:46:02;3.58;;;3.22;;
5507;SDS011;2776;51.046;6.772;2023-09-08T12:48:29;3.92;;;3.42;;
5507;SDS011;2776;51.046;6.772;2023-09-08T12:50:55;4.30;;;3.58;;
5507;SDS011;2776;51.046;6.772;2023-09-08T12:53:22;4.72;;;4.05;;
5507;SDS011;2776;51.046;6.772;2023-09-08T12:55:49;4.80;;;3.58;;
5507;SDS011;2776;51.046;6.772;2023-09-08T12:58:16;4.45;;;3.45;;
5507;SDS011;2776;51.046;6.772;2023-09-08T13:00:43;4.10;;;3.72;;
5507;SDS011;2776;51.046;6.772;2023-09-08T13:03:11;4.97;;;3.33;;
5507;SDS011;2776;51.046;6.772;2023-09-08T13:05:38;6.85;;;3.67;;
5507;SDS011;2776;51.046;6.772;2023-09-08T13:08:05;4.95;;;3.40;;
5507;SDS011;2776;51.046;6.772;2023-09-08T13:10:31;4.93;;;3.60;;
5507;SDS011;2776;51.046;6.772;2023-09-08T13:12:58;4.00;;;3.60;;
5507;SDS011;2776;51.046;6.772;2023-09-08T13:15:25;3.58;;;3.28;;
5507;SDS011;2776;51.046;6.772;2023-09-08T13:17:51;3.80;;;3.50;;
5507;SDS011;2776;51.046;6.772;2023-09-08T13:20:20;5.40;;;3.70;;
5507;SDS011;2776;51.046;6.772;2023-09-08T13:22:46;3.58;;;3.28;;
5507;SDS011;2776;51.046;6.772;2023-09-08T13:25:13;4.07;;;3.13;;
5507;SDS011;2776;51.046;6.772;2023-09-08T13:27:40;3.50;;;3.20;;
5507;SDS011;2776;51.046;6.772;2023-09-08T13:30:07;4.35;;;3.60;;
5507;SDS011;2776;51.046;6.772;2023-09-08T13:32:35;4.28;;;3.30;;
5507;SDS011;2776;51.046;6.772;2023-09-08T13:35:02;3.78;;;3.38;;
5507;SDS011;2776;51.046;6.772;2023-09-08T13:37:31;4.38;;;3.40;;
5507;SDS011;2776;51.046;6.772;2023-09-08T13:39:59;5.00;;;3.33;;
5507;SDS011;2776;51.046;6.772;2023-09-08T13:42:26;3.45;;;3.15;;
5507;SDS011;2776;51.046;6.772;2023-09-08T13:44:52;4.10;;;3.40;;
5507;SDS011;2776;51.046;6.772;2023-09-08T13:47:20;3.63;;;3.13;;
5507;SDS011;2776;51.046;6.772;2023-09-08T13:49:47;3.65;;;3.33;;
5507;SDS011;2776;51.046;6.772;2023-09-08T13:52:13;4.05;;;3.05;;
5507;SDS011;2776;51.046;6.772;2023-09-08T13:54:41;3.95;;;3.25;;
5507;SDS011;2776;51.046;6.772;2023-09-08T13:57:08;5.25;;;3.90;;
5507;SDS011;2776;51.046;6.772;2023-09-08T13:59:35;4.00;;;3.38;;
5507;SDS011;2776;51.046;6.772;2023-09-08T14:02:02;4.72;;;3.20;;
5507;SDS011;2776;51.046;6.772;2023-09-08T14:04:29;4.63;;;3.10;;
5507;SDS011;2776;51.046;6.772;2023-09-08T14:06:56;3.75;;;3.30;;
5507;SDS011;2776;51.046;6.772;2023-09-08T14:09:22;5.53;;;3.40;;
5507;SDS011;2776;51.046;6.772;2023-09-08T14:11:52;3.70;;;3.10;;
5507;SDS011;2776;51.046;6.772;2023-09-08T14:14:19;4.63;;;3.30;;
5507;SDS011;2776;51.046;6.772;2023-09-08T14:16:46;3.45;;;2.97;;
5507;SDS011;2776;51.046;6.772;2023-09-08T14:19:13;4.25;;;3.08;;
5507;SDS011;2776;51.046;6.772;2023-09-08T14:21:39;3.60;;;3.00;;
5507;SDS011;2776;51.046;6.772;2023-09-08T14:24:06;4.65;;;3.10;;
5507;SDS011;2776;51.046;6.772;2023-09-08T14:26:33;4.43;;;3.70;;
5507;SDS011;2776;51.046;6.772;2023-09-08T14:29:02;3.50;;;3.20;;
5507;SDS011;2776;51.046;6.772;2023-09-08T14:31:29;5.60;;;3.22;;
5507;SDS011;2776;51.046;6.772;2023-09-08T14:33:56;5.28;;;3.22;;
5507;SDS011;2776;51.046;6.772;2023-09-08T14:36:23;5.47;;;3.33;;
5507;SDS011;2776;51.046;6.772;2023-09-08T14:38:50;7.30;;;3.22;;
5507;SDS011;2776;51.046;6.772;2023-09-08T14:41:17;4.18;;;3.53;;
5507;SDS011;2776;51.046;6.772;2023-09-08T14:43:43;3.22;;;2.92;;
5507;SDS011;2776;51.046;6.772;2023-09-08T14:46:11;3.83;;;3.17;;
5507;SDS011;2776;51.046;6.772;2023-09-08T14:48:38;8.20;;;3.63;;
5507;SDS011;2776;51.046;6.772;2023-09-08T14:51:06;5.35;;;3.50;;
5507;SDS011;2776;51.046;6.772;2023-09-08T14:53:33;7.90;;;3.60;;
5507;SDS011;2776;51.046;6.772;2023-09-08T14:55:59;4.80;;;3.33;;
5507;SDS011;2776;51.046;6.772;2023-09-08T14:58:26;3.97;;;3.50;;
5507;SDS011;2776;51.046;6.772;2023-09-08T15:00:58;4.32;;;3.30;;
5507;SDS011;2776;51.046;6.772;2023-09-08T15:03:29;4.93;;;3.15;;
5507;SDS011;2776;51.046;6.772;2023-09-08T15:05:57;4.60;;;3.67;;
5507;SDS011;2776;51.046;6.772;2023-09-08T15:08:24;4.00;;;3.20;;
5507;SDS011;2776;51.046;6.772;2023-09-08T15:10:51;4.57;;;3.13;;
5507;SDS011;2776;51.046;6.772;2023-09-08T15:13:17;3.80;;;3.25;;
5507;SDS011;2776;51.046;6.772;2023-09-08T15:15:44;5.55;;;3.40;;
5507;SDS011;2776;51.046;6.772;2023-09-08T15:18:11;3.50;;;3.10;;
5507;SDS011;2776;51.046;6.772;2023-09-08T15:20:39;4.75;;;3.30;;